Time;durP1;ratioP1;P1;durP2;ratioP2;P2;SDS_P1;SDS_P2;PMS_P1;PMS_P2;Temp;Humidity;BMP_temperature;BMP_pressure;BME280_temperature;BME280_humidity;BME280_pressure;Samples;Min_cycle;Max_cycle;Signal;HPM_P1;HPM_P2
2022/06/27 00:01:12;;;;;;;2.50;1.38;;;;;;;;;;8352141;28;20036;-61
2022/06/27 00:05:12;;;;;;;1.63;1.30;;;;;;;;;;8352047;28;20118;-60
2022/06/27 00:09:12;;;;;;;2.08;1.30;;;;;;;;;;8354368;28;20039;-61
2022/06/27 00:13:12;;;;;;;1.80;1.23;;;;;;;;;;8352754;28;20052;-61
2022/06/27 00:17:13;;;;;;;1.63;1.30;;;;;;;;;;8350604;28;20078;-60
2022/06/27 00:21:13;;;;;;;1.40;1.30;;;;;;;;;;8351292;28;20477;-61
2022/06/27 00:25:13;;;;;;;3.23;1.50;;;;;;;;;;8354006;28;20028;-60
2022/06/27 00:29:13;;;;;;;1.90;1.40;;;;;;;;;;8353828;28;20286;-61
2022/06/27 00:33:14;;;;;;;1.70;1.30;;;;;;;;;;8350699;28;20587;-61
2022/06/27 00:37:15;;;;;;;2.90;1.20;;;;;;;;;;8352605;28;20044;-61
2022/06/27 00:41:15;;;;;;;2.33;1.20;;;;;;;;;;8352732;28;20634;-61
2022/06/27 00:45:15;;;;;;;1.92;1.52;;;;;;;;;;8349659;28;20029;-61
2022/06/27 00:49:15;;;;;;;1.88;1.45;;;;;;;;;;8350878;28;20094;-61
2022/06/27 00:53:15;;;;;;;1.30;1.20;;;;;;;;;;8349765;28;20025;-61
2022/06/27 00:57:16;;;;;;;2.20;1.10;;;;;;;;;;8352319;28;20009;-61
2022/06/27 01:01:16;;;;;;;1.73;1.08;;;;;;;;;;8351561;28;20607;-61
2022/06/27 01:05:17;;;;;;;2.55;1.15;;;;;;;;;;8348721;28;20020;-61
2022/06/27 01:09:20;;;;;;;5.47;1.30;;;;;;;;;;8348093;28;20032;-62
2022/06/27 01:13:21;;;;;;;1.17;1.13;;;;;;;;;;8347641;28;20294;-61
2022/06/27 01:17:22;;;;;;;1.83;1.30;;;;;;;;;;8349947;28;20087;-60
2022/06/27 01:21:24;;;;;;;1.85;1.10;;;;;;;;;;8352467;28;20099;-61
2022/06/27 01:25:25;;;;;;;1.75;1.40;;;;;;;;;;8351114;28;20028;-61
2022/06/27 01:29:25;;;;;;;291.27;8.30;;;;;;;;;;8350532;28;20029;-61
2022/06/27 01:33:25;;;;;;;410.25;10.70;;;;;;;;;;8349190;28;20395;-61
2022/06/27 01:37:25;;;;;;;932.63;25.73;;;;;;;;;;8351143;28;20024;-61
2022/06/27 01:41:26;;;;;;;16.42;1.83;;;;;;;;;;8351647;28;20012;-61
2022/06/27 01:45:29;;;;;;;332.30;10.85;;;;;;;;;;8348556;28;20362;-61
2022/06/27 01:49:29;;;;;;;164.38;6.28;;;;;;;;;;8349793;28;20206;-61
2022/06/27 01:53:30;;;;;;;3.25;1.92;;;;;;;;;;8350054;28;20028;-60
2022/06/27 01:57:30;;;;;;;3.03;2.45;;;;;;;;;;8351541;28;20024;-61
2022/06/27 02:01:31;;;;;;;15.13;3.10;;;;;;;;;;8347683;28;20052;-61
2022/06/27 02:05:32;;;;;;;25.55;3.13;;;;;;;;;;8342707;28;20259;-60
2022/06/27 02:09:32;;;;;;;43.47;4.05;;;;;;;;;;8342564;28;20446;-61
2022/06/27 02:13:32;;;;;;;7.10;2.60;;;;;;;;;;8345799;28;20328;-60
2022/06/27 02:17:33;;;;;;;121.78;5.80;;;;;;;;;;8346224;28;20278;-60
2022/06/27 02:21:33;;;;;;;90.28;5.95;;;;;;;;;;8342796;28;20021;-61
2022/06/27 02:25:33;;;;;;;8.98;3.25;;;;;;;;;;8350024;28;20463;-61
2022/06/27 02:29:33;;;;;;;3.38;3.00;;;;;;;;;;8349367;28;20028;-61
2022/06/27 02:33:38;;;;;;;24.70;3.67;;;;;;;;;;8349189;28;20110;-61
2022/06/27 02:37:40;;;;;;;11.55;3.75;;;;;;;;;;8351623;28;20147;-61
2022/06/27 02:41:42;;;;;;;4.15;3.00;;;;;;;;;;8348324;28;20035;-61
2022/06/27 02:45:43;;;;;;;3.22;2.97;;;;;;;;;;8347059;28;20032;-61
2022/06/27 02:49:43;;;;;;;3.83;3.40;;;;;;;;;;8350926;28;20119;-61
2022/06/27 02:53:53;;;;;;;5.15;3.40;;;;;;;;;;8348506;28;20063;-61
2022/06/27 02:58:00;;;;;;;5.28;4.78;;;;;;;;;;8348579;28;20592;-61
2022/06/27 03:02:01;;;;;;;4.95;4.55;;;;;;;;;;8347455;28;20033;-60
2022/06/27 03:06:06;;;;;;;5.47;4.97;;;;;;;;;;8350877;28;20040;-60
2022/06/27 03:10:07;;;;;;;7.22;5.22;;;;;;;;;;8350671;28;20124;-60
2022/06/27 03:14:07;;;;;;;6.20;5.68;;;;;;;;;;8350671;28;20077;-60
2022/06/27 03:18:09;;;;;;;8.32;7.53;;;;;;;;;;8347047;28;20499;-60
2022/06/27 03:22:10;;;;;;;11.63;8.80;;;;;;;;;;8348464;28;20140;-61
2022/06/27 03:26:10;;;;;;;9.20;8.40;;;;;;;;;;8347348;28;20032;-61
2022/06/27 03:30:11;;;;;;;5.82;5.22;;;;;;;;;;8347935;28;20308;-61
2022/06/27 03:34:11;;;;;;;4.63;4.20;;;;;;;;;;8348833;28;20329;-61
2022/06/27 03:38:14;;;;;;;3.28;2.97;;;;;;;;;;8347448;28;20290;-60
2022/06/27 03:42:14;;;;;;;4.40;3.10;;;;;;;;;;8345832;28;20528;-60
2022/06/27 03:46:14;;;;;;;5.63;2.47;;;;;;;;;;8346779;28;20433;-60
2022/06/27 03:50:15;;;;;;;3.03;2.50;;;;;;;;;;8347427;28;20020;-61
2022/06/27 03:54:15;;;;;;;2.60;2.47;;;;;;;;;;8346563;28;20356;-61
2022/06/27 03:58:15;;;;;;;3.20;2.90;;;;;;;;;;8347386;28;20263;-60
2022/06/27 04:02:16;;;;;;;2.45;2.25;;;;;;;;;;8344812;28;20512;-60
2022/06/27 04:06:16;;;;;;;3.58;2.10;;;;;;;;;;8348884;28;20035;-60
2022/06/27 04:10:16;;;;;;;2.47;2.20;;;;;;;;;;8343973;28;20024;-61
2022/06/27 04:14:16;;;;;;;1.67;1.58;;;;;;;;;;8347784;28;20309;-61
2022/06/27 04:18:17;;;;;;;1.92;1.73;;;;;;;;;;8346576;28;20563;-61
2022/06/27 04:22:17;;;;;;;1.60;1.50;;;;;;;;;;8346058;28;20028;-60
2022/06/27 04:26:17;;;;;;;1.90;1.80;;;;;;;;;;8348922;28;20544;-60
2022/06/27 04:30:18;;;;;;;1.92;1.80;;;;;;;;;;8344582;28;20071;-60
2022/06/27 04:34:18;;;;;;;2.78;1.80;;;;;;;;;;8346221;28;20051;-60
2022/06/27 04:38:20;;;;;;;2.92;1.70;;;;;;;;;;8348576;28;20557;-60
2022/06/27 04:42:22;;;;;;;2.65;1.73;;;;;;;;;;8346822;28;20059;-60
2022/06/27 04:46:23;;;;;;;2.35;1.50;;;;;;;;;;8344696;28;20035;-61
2022/06/27 04:50:25;;;;;;;1.85;1.63;;;;;;;;;;8340554;28;20424;-60
2022/06/27 04:54:26;;;;;;;3.10;1.30;;;;;;;;;;8345380;28;20023;-60
2022/06/27 04:58:26;;;;;;;1.98;1.48;;;;;;;;;;8345742;28;20045;-60
2022/06/27 05:02:27;;;;;;;2.55;1.40;;;;;;;;;;8344355;28;20067;-60
2022/06/27 05:06:27;;;;;;;2.10;1.38;;;;;;;;;;8344305;28;20493;-61
2022/06/27 05:10:27;;;;;;;3.65;1.27;;;;;;;;;;8344208;28;20571;-61
2022/06/27 05:14:28;;;;;;;1.98;1.40;;;;;;;;;;8344262;28;20453;-61
2022/06/27 05:18:28;;;;;;;4.25;1.40;;;;;;;;;;8343438;28;20033;-60
2022/06/27 05:22:28;;;;;;;1.63;1.40;;;;;;;;;;8345859;28;20318;-60
2022/06/27 05:26:28;;;;;;;3.58;1.50;;;;;;;;;;8349715;28;20059;-60
2022/06/27 05:30:30;;;;;;;2.53;1.45;;;;;;;;;;8350608;28;20071;-60
2022/06/27 05:34:32;;;;;;;2.95;2.00;;;;;;;;;;8350575;28;20091;-61
2022/06/27 05:38:33;;;;;;;3.60;1.80;;;;;;;;;;8349339;28;20045;-61
2022/06/27 05:42:34;;;;;;;2.58;2.30;;;;;;;;;;8349439;28;20091;-60
2022/06/27 05:46:35;;;;;;;6.30;2.80;;;;;;;;;;8344549;28;20313;-60
2022/06/27 05:50:35;;;;;;;2.30;2.20;;;;;;;;;;8341659;28;20396;-60
2022/06/27 05:54:35;;;;;;;3.85;2.45;;;;;;;;;;8345775;28;20103;-60
2022/06/27 05:58:37;;;;;;;3.83;2.60;;;;;;;;;;8348126;28;20059;-60
2022/06/27 06:02:37;;;;;;;3.83;2.30;;;;;;;;;;8346766;28;20036;-60
2022/06/27 06:06:38;;;;;;;2.60;2.35;;;;;;;;;;8350581;28;20030;-60
2022/06/27 06:10:38;;;;;;;5.07;2.30;;;;;;;;;;8349864;28;20028;-61
2022/06/27 06:14:39;;;;;;;2.70;2.50;;;;;;;;;;8347472;28;20021;-60
2022/06/27 06:18:39;;;;;;;5.53;2.85;;;;;;;;;;8346152;28;20279;-61
2022/06/27 06:22:40;;;;;;;4.43;2.90;;;;;;;;;;8346584;28;20116;-60
2022/06/27 06:26:41;;;;;;;3.85;3.20;;;;;;;;;;8348161;28;20033;-61
2022/06/27 06:30:41;;;;;;;4.93;2.35;;;;;;;;;;8347216;28;20090;-60
2022/06/27 06:34:42;;;;;;;3.58;2.50;;;;;;;;;;8346889;28;20629;-60
2022/06/27 06:38:44;;;;;;;4.65;2.65;;;;;;;;;;8347299;28;20021;-60
2022/06/27 06:42:45;;;;;;;4.75;2.30;;;;;;;;;;8347935;28;20024;-60
2022/06/27 06:46:45;;;;;;;3.17;2.65;;;;;;;;;;8347873;28;20032;-60
2022/06/27 06:50:46;;;;;;;3.75;2.63;;;;;;;;;;8348038;28;20665;-61
2022/06/27 06:54:46;;;;;;;2.97;2.53;;;;;;;;;;8347200;28;20012;-61
2022/06/27 06:58:46;;;;;;;3.10;2.88;;;;;;;;;;8347201;28;20106;-60
2022/06/27 07:02:48;;;;;;;3.72;2.78;;;;;;;;;;8345376;28;20124;-60
2022/06/27 07:06:48;;;;;;;2.90;2.50;;;;;;;;;;8346800;28;20029;-60
2022/06/27 07:10:49;;;;;;;3.17;2.80;;;;;;;;;;8345618;28;20590;-60
2022/06/27 07:14:49;;;;;;;3.72;2.60;;;;;;;;;;8346515;28;20676;-60
2022/06/27 07:18:49;;;;;;;3.47;3.10;;;;;;;;;;8346039;28;20113;-61
2022/06/27 07:22:50;;;;;;;3.28;2.70;;;;;;;;;;8347347;28;20034;-60
2022/06/27 07:26:52;;;;;;;3.67;2.70;;;;;;;;;;8348394;28;20408;-60
2022/06/27 07:30:53;;;;;;;3.15;2.88;;;;;;;;;;8348256;28;20388;-60
2022/06/27 07:34:54;;;;;;;3.17;2.88;;;;;;;;;;8349368;28;20463;-61
2022/06/27 07:38:54;;;;;;;3.30;3.10;;;;;;;;;;8348507;28;20063;-60
2022/06/27 07:42:55;;;;;;;5.07;3.08;;;;;;;;;;8348201;28;20110;-60
2022/06/27 07:46:56;;;;;;;3.58;2.70;;;;;;;;;;8347095;28;20230;-60
2022/06/27 07:50:56;;;;;;;3.17;2.70;;;;;;;;;;8345578;28;20025;-60
2022/06/27 07:54:57;;;;;;;3.03;2.37;;;;;;;;;;8348029;28;20093;-60
2022/06/27 07:58:57;;;;;;;2.42;2.22;;;;;;;;;;8346609;28;20558;-60
2022/06/27 08:02:57;;;;;;;2.50;2.30;;;;;;;;;;8346411;28;20059;-60
2022/06/27 08:06:58;;;;;;;2.95;2.50;;;;;;;;;;8346052;28;20225;-60
2022/06/27 08:10:58;;;;;;;3.70;2.60;;;;;;;;;;8346704;28;20594;-60
2022/06/27 08:14:59;;;;;;;4.43;2.55;;;;;;;;;;8345206;28;20317;-60
2022/06/27 08:19:00;;;;;;;3.90;2.60;;;;;;;;;;8346410;28;20091;-60
2022/06/27 08:23:00;;;;;;;4.18;3.40;;;;;;;;;;8348571;28;20043;-60
2022/06/27 08:27:04;;;;;;;3.83;3.00;;;;;;;;;;8347868;28;20024;-60
2022/06/27 08:31:07;;;;;;;5.03;3.33;;;;;;;;;;8352042;28;20066;-60
2022/06/27 08:35:08;;;;;;;3.47;3.15;;;;;;;;;;8352040;28;20048;-60
2022/06/27 08:39:16;;;;;;;4.65;3.55;;;;;;;;;;8353301;28;20024;-60
2022/06/27 08:43:16;;;;;;;3.50;3.20;;;;;;;;;;8349336;28;20031;-60
2022/06/27 08:47:16;;;;;;;3.70;3.35;;;;;;;;;;8348886;28;20133;-60
2022/06/27 08:51:18;;;;;;;3.83;3.10;;;;;;;;;;8352585;28;20362;-60
2022/06/27 08:55:18;;;;;;;3.72;3.30;;;;;;;;;;8350757;28;20890;-60
2022/06/27 08:59:18;;;;;;;3.72;3.22;;;;;;;;;;8350820;28;20017;-60
2022/06/27 09:03:20;;;;;;;5.50;3.00;;;;;;;;;;8349393;28;20105;-60
2022/06/27 09:07:20;;;;;;;5.88;3.10;;;;;;;;;;8351018;28;20021;-60
2022/06/27 09:11:33;;;;;;;6.65;3.15;;;;;;;;;;8350764;28;20027;-60
2022/06/27 09:15:49;;;;;;;4.00;3.00;;;;;;;;;;8347633;28;20615;-60
2022/06/27 09:19:49;;;;;;;8.13;2.90;;;;;;;;;;8348946;28;20441;-61
2022/06/27 09:23:58;;;;;;;3.30;2.85;;;;;;;;;;8349536;28;20024;-60
2022/06/27 09:28:01;;;;;;;3.95;3.33;;;;;;;;;;8352018;28;20063;-60
2022/06/27 09:32:06;;;;;;;3.38;3.08;;;;;;;;;;8347602;28;20974;-59
2022/06/27 09:36:10;;;;;;;3.35;3.05;;;;;;;;;;8351325;28;20438;-60
2022/06/27 09:40:11;;;;;;;3.53;3.10;;;;;;;;;;8347973;28;20025;-60
2022/06/27 09:44:15;;;;;;;6.28;3.20;;;;;;;;;;8353538;28;20442;-61
2022/06/27 09:48:17;;;;;;;3.92;2.90;;;;;;;;;;8348144;28;20043;-60
2022/06/27 09:52:18;;;;;;;6.03;2.85;;;;;;;;;;8349848;28;20025;-60
2022/06/27 09:56:19;;;;;;;4.05;3.10;;;;;;;;;;8348236;28;21054;-60
2022/06/27 10:00:20;;;;;;;4.32;3.58;;;;;;;;;;8347921;28;20492;-60
2022/06/27 10:04:24;;;;;;;3.58;3.28;;;;;;;;;;8349883;28;20028;-60
2022/06/27 10:08:25;;;;;;;5.95;3.63;;;;;;;;;;8350034;28;20036;-60
2022/06/27 10:12:31;;;;;;;6.40;4.40;;;;;;;;;;8349851;28;20216;-59
2022/06/27 10:16:32;;;;;;;5.55;4.90;;;;;;;;;;8348475;28;20082;-60
2022/06/27 10:20:33;;;;;;;4.82;4.43;;;;;;;;;;8350986;28;20029;-59
2022/06/27 10:24:34;;;;;;;6.68;4.57;;;;;;;;;;8349199;28;20050;-60
2022/06/27 10:28:36;;;;;;;4.97;3.78;;;;;;;;;;8351311;28;20024;-60
2022/06/27 10:32:39;;;;;;;3.80;3.50;;;;;;;;;;8346958;28;20025;-60
2022/06/27 10:36:39;;;;;;;5.65;3.08;;;;;;;;;;8350602;28;20021;-60
2022/06/27 10:40:43;;;;;;;3.17;2.88;;;;;;;;;;8347528;28;20139;-59
2022/06/27 10:44:43;;;;;;;3.08;2.88;;;;;;;;;;8351615;28;20039;-60
2022/06/27 10:48:48;;;;;;;2.92;2.65;;;;;;;;;;8353476;28;20044;-60
2022/06/27 10:52:48;;;;;;;2.60;2.40;;;;;;;;;;8355241;28;20016;-60
2022/06/27 10:56:53;;;;;;;2.67;2.40;;;;;;;;;;8353283;28;20504;-60
2022/06/27 11:01:13;;;;;;;3.38;2.10;;;;;;;;;;8350378;28;20043;-59
2022/06/27 11:05:13;;;;;;;1.92;1.80;;;;;;;;;;8353814;28;20485;-60
2022/06/27 11:09:13;;;;;;;2.47;1.65;;;;;;;;;;8354713;28;20214;-60
2022/06/27 11:13:32;;;;;;;2.40;1.70;;;;;;;;;;8354161;28;20056;-60
2022/06/27 11:17:34;;;;;;;1.75;1.65;;;;;;;;;;8354272;28;20037;-61
2022/06/27 11:21:35;;;;;;;1.88;1.45;;;;;;;;;;8353338;28;20021;-60
2022/06/27 11:25:38;;;;;;;2.90;1.55;;;;;;;;;;8353612;28;20024;-60
2022/06/27 11:33:59;;;;;;;1.80;1.65;;;;;;;;;;8351853;28;20036;-60
2022/06/27 11:37:59;;;;;;;3.08;1.50;;;;;;;;;;8353103;28;20016;-60
2022/06/27 11:42:09;;;;;;;2.40;1.30;;;;;;;;;;8353079;28;20023;-60
2022/06/27 11:46:20;;;;;;;3.35;1.40;;;;;;;;;;8349546;28;20024;-61
2022/06/27 11:50:20;;;;;;;2.08;1.40;;;;;;;;;;8350035;28;20040;-60
2022/06/27 11:54:20;;;;;;;2.15;1.10;;;;;;;;;;8351572;28;20046;-60
2022/06/27 11:58:20;;;;;;;2.17;1.10;;;;;;;;;;8352748;28;20506;-60
2022/06/27 12:02:25;;;;;;;2.05;1.08;;;;;;;;;;8352101;28;20287;-60
2022/06/27 12:06:28;;;;;;;1.95;0.93;;;;;;;;;;8349989;28;20669;-60
2022/06/27 12:10:46;;;;;;;1.20;1.10;;;;;;;;;;8351293;28;20209;-58
2022/06/27 12:14:48;;;;;;;1.15;1.10;;;;;;;;;;8349102;28;20179;-60
2022/06/27 12:18:51;;;;;;;1.00;1.00;;;;;;;;;;8348460;28;20799;-59
2022/06/27 12:22:51;;;;;;;1.10;1.00;;;;;;;;;;8353217;28;20279;-60
2022/06/27 12:26:51;;;;;;;1.38;0.90;;;;;;;;;;8348270;28;20500;-59
2022/06/27 12:30:52;;;;;;;1.73;1.00;;;;;;;;;;8352644;28;20078;-59
2022/06/27 12:34:52;;;;;;;0.90;0.90;;;;;;;;;;8350496;28;20442;-60
2022/06/27 12:38:52;;;;;;;1.83;1.00;;;;;;;;;;8348552;28;20020;-60
2022/06/27 12:42:53;;;;;;;1.10;1.00;;;;;;;;;;8348241;28;20283;-60
2022/06/27 12:46:53;;;;;;;0.80;0.80;;;;;;;;;;8351693;28;20052;-61
2022/06/27 12:50:53;;;;;;;2.20;0.80;;;;;;;;;;8345944;28;20051;-60
2022/06/27 12:54:53;;;;;;;1.38;0.85;;;;;;;;;;8345204;28;20201;-60
2022/06/27 12:58:53;;;;;;;0.93;0.88;;;;;;;;;;8342856;28;20035;-61
2022/06/27 13:02:54;;;;;;;2.25;0.98;;;;;;;;;;8346096;28;20041;-60
2022/06/27 13:06:54;;;;;;;1.40;1.07;;;;;;;;;;8347777;28;20024;-60
2022/06/27 13:10:54;;;;;;;3.88;1.25;;;;;;;;;;8341953;28;20621;-60
2022/06/27 13:14:54;;;;;;;0.90;0.90;;;;;;;;;;8340015;28;20106;-60
2022/06/27 13:18:55;;;;;;;2.50;1.00;;;;;;;;;;8344324;28;20308;-61
2022/06/27 13:22:55;;;;;;;1.67;0.98;;;;;;;;;;8346403;28;20488;-60
2022/06/27 13:26:55;;;;;;;2.72;1.00;;;;;;;;;;8347418;28;20329;-60
2022/06/27 13:30:56;;;;;;;2.38;1.00;;;;;;;;;;8347366;28;20330;-60
2022/06/27 13:34:57;;;;;;;2.15;0.98;;;;;;;;;;8346406;28;20810;-60
2022/06/27 13:43:35;;;;;;;0.90;0.90;;;;;;;;;;8369881;28;20486;-60
2022/06/27 13:47:35;;;;;;;2.70;1.20;;;;;;;;;;8348565;28;20394;-60
2022/06/27 13:51:36;;;;;;;0.90;0.80;;;;;;;;;;8345195;28;20033;-60
2022/06/27 13:55:37;;;;;;;2.25;0.90;;;;;;;;;;8345847;28;20506;-60
2022/06/27 13:59:37;;;;;;;2.80;1.02;;;;;;;;;;8347886;28;20329;-60
2022/06/27 14:03:39;;;;;;;1.10;0.93;;;;;;;;;;8345773;28;20040;-60
2022/06/27 14:07:45;;;;;;;0.80;0.80;;;;;;;;;;8346583;28;20065;-60
2022/06/27 14:11:45;;;;;;;1.20;0.90;;;;;;;;;;8345314;28;20040;-60
2022/06/27 14:15:46;;;;;;;2.65;0.90;;;;;;;;;;8340789;28;20568;-60
2022/06/27 14:19:46;;;;;;;0.90;0.90;;;;;;;;;;8342521;28;20047;-60
2022/06/27 14:23:46;;;;;;;1.10;0.95;;;;;;;;;;8345733;28;20033;-60
2022/06/27 14:27:47;;;;;;;1.77;0.80;;;;;;;;;;8344113;28;20647;-61
2022/06/27 14:31:47;;;;;;;2.85;0.90;;;;;;;;;;8343898;28;20036;-60
2022/06/27 14:35:47;;;;;;;2.95;0.90;;;;;;;;;;8345045;28;20993;-60
2022/06/27 14:39:47;;;;;;;1.60;0.90;;;;;;;;;;8343233;28;20418;-60
2022/06/27 14:43:48;;;;;;;2.97;1.10;;;;;;;;;;8344225;28;20476;-61
2022/06/27 14:47:49;;;;;;;1.15;1.00;;;;;;;;;;8344291;28;20250;-61
2022/06/27 14:51:49;;;;;;;2.53;1.00;;;;;;;;;;8344941;28;20060;-60
2022/06/27 14:55:50;;;;;;;2.17;0.90;;;;;;;;;;8345552;28;20101;-60
2022/06/27 14:59:50;;;;;;;1.25;0.90;;;;;;;;;;8343795;28;20270;-61
2022/06/27 15:03:51;;;;;;;1.65;1.00;;;;;;;;;;8345840;28;20040;-60
2022/06/27 15:07:51;;;;;;;4.35;0.95;;;;;;;;;;8346290;28;20031;-60
2022/06/27 15:11:51;;;;;;;1.25;0.90;;;;;;;;;;8342801;28;20029;-60
2022/06/27 15:15:51;;;;;;;3.03;1.00;;;;;;;;;;8352290;28;20033;-63
2022/06/27 15:19:52;;;;;;;2.17;0.87;;;;;;;;;;8355082;28;20374;-62
2022/06/27 15:23:52;;;;;;;0.65;0.65;;;;;;;;;;8352958;28;20043;-64
2022/06/27 15:27:52;;;;;;;2.65;1.23;;;;;;;;;;8351596;28;20109;-63
2022/06/27 15:31:52;;;;;;;1.17;0.80;;;;;;;;;;8350886;28;20040;-63
2022/06/27 15:35:53;;;;;;;0.90;0.90;;;;;;;;;;8350111;28;20547;-59
2022/06/27 15:39:53;;;;;;;0.93;0.90;;;;;;;;;;8344581;28;20032;-60
2022/06/27 15:43:53;;;;;;;3.15;0.90;;;;;;;;;;8342921;28;20566;-59
2022/06/27 15:47:53;;;;;;;1.45;1.10;;;;;;;;;;8342182;28;20272;-59
2022/06/27 15:51:54;;;;;;;1.45;0.70;;;;;;;;;;8344904;28;20335;-61
2022/06/27 15:55:55;;;;;;;0.77;0.70;;;;;;;;;;8340670;28;20051;-59
2022/06/27 15:59:55;;;;;;;1.65;0.80;;;;;;;;;;8343515;28;20036;-59
2022/06/27 16:03:55;;;;;;;1.15;0.82;;;;;;;;;;8339785;28;20040;-59
2022/06/27 16:07:56;;;;;;;1.75;0.90;;;;;;;;;;8340405;28;20036;-59
2022/06/27 16:11:57;;;;;;;1.42;0.85;;;;;;;;;;8342191;28;20040;-59
2022/06/27 16:15:57;;;;;;;2.45;0.85;;;;;;;;;;8341695;28;20622;-59
2022/06/27 16:19:57;;;;;;;3.60;0.70;;;;;;;;;;8339559;28;20551;-59
2022/06/27 16:23:57;;;;;;;1.13;0.70;;;;;;;;;;8342154;28;20613;-59
2022/06/27 16:28:02;;;;;;;0.73;0.73;;;;;;;;;;8342493;28;20051;-59
2022/06/27 16:32:03;;;;;;;3.17;0.90;;;;;;;;;;8341291;28;20349;-59
2022/06/27 16:36:03;;;;;;;2.53;0.75;;;;;;;;;;8342243;28;20425;-60
2022/06/27 16:40:04;;;;;;;2.22;0.70;;;;;;;;;;8339881;28;20123;-59
2022/06/27 16:44:04;;;;;;;0.70;0.70;;;;;;;;;;8342506;28;20020;-59
2022/06/27 16:48:04;;;;;;;1.48;0.82;;;;;;;;;;8341738;28;20445;-59
2022/06/27 16:52:06;;;;;;;1.67;0.73;;;;;;;;;;8340712;28;20341;-59
2022/06/27 16:56:07;;;;;;;1.17;0.73;;;;;;;;;;8339828;28;20343;-59
2022/06/27 17:00:07;;;;;;;1.15;0.80;;;;;;;;;;8340391;28;20159;-61
2022/06/27 17:04:07;;;;;;;1.50;0.60;;;;;;;;;;8338404;28;20048;-59
2022/06/27 17:08:08;;;;;;;1.67;0.73;;;;;;;;;;8341807;28;20107;-59
2022/06/27 17:12:08;;;;;;;3.90;1.20;;;;;;;;;;8339488;28;20615;-59
2022/06/27 17:16:09;;;;;;;0.90;0.90;;;;;;;;;;8341672;28;20040;-59
2022/06/27 17:20:09;;;;;;;0.88;0.80;;;;;;;;;;8341270;28;20088;-59
2022/06/27 17:24:10;;;;;;;0.95;0.77;;;;;;;;;;8340568;28;20032;-59
2022/06/27 17:28:10;;;;;;;2.00;0.80;;;;;;;;;;8342204;28;20021;-59
2022/06/27 17:32:10;;;;;;;0.80;0.80;;;;;;;;;;8339922;28;20043;-60
2022/06/27 17:36:10;;;;;;;2.55;1.00;;;;;;;;;;8338945;28;20401;-59
2022/06/27 17:40:11;;;;;;;1.73;0.90;;;;;;;;;;8341051;28;20128;-59
2022/06/27 17:44:11;;;;;;;2.28;0.90;;;;;;;;;;8338272;28;20256;-59
2022/06/27 17:48:11;;;;;;;1.00;0.90;;;;;;;;;;8337286;28;20116;-60
2022/06/27 17:52:11;;;;;;;0.70;0.70;;;;;;;;;;8336144;28;20021;-60
2022/06/27 17:56:12;;;;;;;1.30;0.88;;;;;;;;;;8349412;28;20541;-59
2022/06/27 18:00:13;;;;;;;1.07;0.80;;;;;;;;;;8349610;28;20055;-59
2022/06/27 18:04:13;;;;;;;0.80;0.80;;;;;;;;;;8349925;28;20135;-59
2022/06/27 18:08:14;;;;;;;1.65;0.98;;;;;;;;;;8349368;28;20855;-59
2022/06/27 18:12:14;;;;;;;2.97;0.80;;;;;;;;;;8350341;28;20056;-60
2022/06/27 18:16:14;;;;;;;0.80;0.80;;;;;;;;;;8349114;28;20439;-60
2022/06/27 18:20:14;;;;;;;2.15;0.90;;;;;;;;;;8347777;28;20031;-59
2022/06/27 18:24:15;;;;;;;3.67;0.85;;;;;;;;;;8352045;28;20028;-59
2022/06/27 18:28:15;;;;;;;2.05;0.90;;;;;;;;;;8351256;28;20032;-59
2022/06/27 18:32:15;;;;;;;2.40;0.90;;;;;;;;;;8349416;28;20577;-60
2022/06/27 18:36:15;;;;;;;0.95;0.95;;;;;;;;;;8350546;28;20398;-59
2022/06/27 18:40:16;;;;;;;0.73;0.73;;;;;;;;;;8348377;28;20481;-59
2022/06/27 18:44:16;;;;;;;0.82;0.70;;;;;;;;;;8348333;28;20033;-60
2022/06/27 18:48:16;;;;;;;1.02;0.80;;;;;;;;;;8349710;28;20040;-59
2022/06/27 18:52:16;;;;;;;1.45;0.93;;;;;;;;;;8351092;28;20575;-59
2022/06/27 18:56:17;;;;;;;0.90;0.90;;;;;;;;;;8352657;28;20093;-60
2022/06/27 19:00:17;;;;;;;1.15;0.90;;;;;;;;;;8357854;28;20032;-60
2022/06/27 19:04:18;;;;;;;0.95;0.77;;;;;;;;;;8355099;28;20028;-59
2022/06/27 19:08:18;;;;;;;0.80;0.80;;;;;;;;;;8351211;28;20028;-60
2022/06/27 19:12:18;;;;;;;1.42;1.00;;;;;;;;;;8353346;28;20074;-60
2022/06/27 19:16:19;;;;;;;0.80;0.80;;;;;;;;;;8354395;28;20222;-60
2022/06/27 19:20:19;;;;;;;4.55;1.08;;;;;;;;;;8355259;28;20031;-60
2022/06/27 19:24:19;;;;;;;1.70;0.80;;;;;;;;;;8353402;28;20036;-60
2022/06/27 19:28:20;;;;;;;1.70;0.90;;;;;;;;;;8354017;28;20616;-59
2022/06/27 19:32:21;;;;;;;2.40;0.90;;;;;;;;;;8350580;28;20817;-60
2022/06/27 19:36:21;;;;;;;0.70;0.70;;;;;;;;;;8351825;28;20031;-59
2022/06/27 19:40:21;;;;;;;1.58;0.90;;;;;;;;;;8354035;28;20025;-61
2022/06/27 19:44:21;;;;;;;1.42;0.70;;;;;;;;;;8351096;28;20024;-60
2022/06/27 19:48:21;;;;;;;3.53;0.73;;;;;;;;;;8349600;28;20033;-60
2022/06/27 19:52:24;;;;;;;3.83;0.70;;;;;;;;;;8353176;28;20021;-59
2022/06/27 19:56:24;;;;;;;1.48;0.60;;;;;;;;;;8350413;28;20024;-59
2022/06/27 20:00:40;;;;;;;0.68;0.60;;;;;;;;;;8345103;28;20404;-60
2022/06/27 20:04:40;;;;;;;1.27;0.60;;;;;;;;;;8359970;28;20020;-60
2022/06/27 20:08:41;;;;;;;0.87;0.60;;;;;;;;;;8352265;28;20036;-60
2022/06/27 20:12:41;;;;;;;1.13;0.55;;;;;;;;;;8351430;28;20281;-59
2022/06/27 20:16:41;;;;;;;0.73;0.60;;;;;;;;;;8350577;28;20492;-60
2022/06/27 20:20:42;;;;;;;1.10;0.80;;;;;;;;;;8353247;28;20017;-59
2022/06/27 20:24:42;;;;;;;1.65;0.60;;;;;;;;;;8349794;28;20028;-58
2022/06/27 20:28:43;;;;;;;0.80;0.60;;;;;;;;;;8351582;28;20025;-60
2022/06/27 20:32:44;;;;;;;4.53;0.70;;;;;;;;;;8348763;28;20037;-59
2022/06/27 20:36:44;;;;;;;0.60;0.60;;;;;;;;;;8350809;28;20028;-59
2022/06/27 20:40:47;;;;;;;0.50;0.50;;;;;;;;;;8339664;28;20043;-59
2022/06/27 20:44:47;;;;;;;0.68;0.60;;;;;;;;;;8348894;28;20024;-59
2022/06/27 20:48:47;;;;;;;0.95;0.60;;;;;;;;;;8350607;28;20043;-59
2022/06/27 20:52:48;;;;;;;0.70;0.70;;;;;;;;;;8350301;28;20020;-58
2022/06/27 20:56:48;;;;;;;1.70;0.70;;;;;;;;;;8352592;28;20016;-59
2022/06/27 21:00:49;;;;;;;1.05;0.50;;;;;;;;;;8349163;28;20067;-60
2022/06/27 21:04:49;;;;;;;1.40;0.70;;;;;;;;;;8350112;28;20875;-58
2022/06/27 21:13:08;;;;;;;0.57;0.55;;;;;;;;;;8350776;28;20094;-59
2022/06/27 21:17:08;;;;;;;0.60;0.60;;;;;;;;;;8348321;28;20029;-58
2022/06/27 21:21:09;;;;;;;1.17;0.70;;;;;;;;;;8351239;28;20139;-58
2022/06/27 21:25:09;;;;;;;0.55;0.50;;;;;;;;;;8346418;28;21006;-58
2022/06/27 21:29:10;;;;;;;1.23;0.80;;;;;;;;;;8345621;28;20020;-59
2022/06/27 21:33:10;;;;;;;0.73;0.65;;;;;;;;;;8342963;28;20272;-58
2022/06/27 21:37:11;;;;;;;0.70;0.70;;;;;;;;;;8346160;28;20473;-58
2022/06/27 21:41:11;;;;;;;0.90;0.50;;;;;;;;;;8345791;28;20889;-59
2022/06/27 21:45:11;;;;;;;1.13;0.90;;;;;;;;;;8344456;28;20532;-59
2022/06/27 21:49:12;;;;;;;0.98;0.70;;;;;;;;;;8346622;28;20988;-59
2022/06/27 21:53:12;;;;;;;2.35;0.60;;;;;;;;;;8350877;28;20081;-59
2022/06/27 21:57:12;;;;;;;1.60;0.67;;;;;;;;;;8350230;28;20535;-58
2022/06/27 22:01:13;;;;;;;2.97;0.90;;;;;;;;;;8345433;28;20150;-58
2022/06/27 22:05:13;;;;;;;0.73;0.70;;;;;;;;;;8346864;28;20017;-58
2022/06/27 22:09:13;;;;;;;1.00;0.70;;;;;;;;;;8347877;28;20283;-58
2022/06/27 22:13:14;;;;;;;1.65;0.70;;;;;;;;;;8349648;28;20020;-59
2022/06/27 22:17:14;;;;;;;1.58;0.70;;;;;;;;;;8345223;28;20040;-58
2022/06/27 22:21:15;;;;;;;1.00;0.80;;;;;;;;;;8347315;28;20042;-58
2022/06/27 22:25:15;;;;;;;0.60;0.60;;;;;;;;;;8347827;28;20878;-58
2022/06/27 22:29:15;;;;;;;3.28;0.70;;;;;;;;;;8348780;28;20283;-58
2022/06/27 22:33:15;;;;;;;0.70;0.70;;;;;;;;;;8344900;28;20320;-58
2022/06/27 22:37:16;;;;;;;1.00;0.70;;;;;;;;;;8346745;28;20296;-58
2022/06/27 22:41:16;;;;;;;2.50;0.80;;;;;;;;;;8348631;28;20028;-58
2022/06/27 22:45:16;;;;;;;0.70;0.70;;;;;;;;;;8356121;28;20672;-59
2022/06/27 22:49:16;;;;;;;3.05;1.05;;;;;;;;;;8356155;28;20028;-58
2022/06/27 22:53:16;;;;;;;4.50;1.73;;;;;;;;;;8354718;28;20025;-58
2022/06/27 22:57:17;;;;;;;1.20;0.80;;;;;;;;;;8353221;28;20142;-58
2022/06/27 23:01:17;;;;;;;0.75;0.60;;;;;;;;;;8353906;28;20587;-58
2022/06/27 23:05:17;;;;;;;1.40;0.80;;;;;;;;;;8356062;28;20032;-59
2022/06/27 23:09:18;;;;;;;1.50;0.80;;;;;;;;;;8353392;28;20107;-58
2022/06/27 23:13:18;;;;;;;1.67;0.88;;;;;;;;;;8354243;28;20098;-59
2022/06/27 23:17:18;;;;;;;2.85;0.80;;;;;;;;;;8354485;28;20060;-58
2022/06/27 23:21:18;;;;;;;1.73;0.70;;;;;;;;;;8357901;28;20056;-59
2022/06/27 23:25:18;;;;;;;0.80;0.80;;;;;;;;;;8357522;28;20040;-58
2022/06/27 23:29:18;;;;;;;0.82;0.80;;;;;;;;;;8354956;28;20044;-58
2022/06/27 23:33:19;;;;;;;0.90;0.70;;;;;;;;;;8355208;28;20039;-58
2022/06/27 23:37:19;;;;;;;0.93;0.80;;;;;;;;;;8350808;28;20107;-59
2022/06/27 23:41:21;;;;;;;1.10;0.80;;;;;;;;;;8355342;28;20090;-58
2022/06/27 23:45:21;;;;;;;0.70;0.70;;;;;;;;;;8353816;28;20501;-58
2022/06/27 23:49:22;;;;;;;0.88;0.88;;;;;;;;;;8354221;28;20024;-59
2022/06/27 23:53:22;;;;;;;1.65;0.90;;;;;;;;;;8355401;28;20019;-59
2022/06/27 23:57:22;;;;;;;1.20;0.80;;;;;;;;;;8356063;28;20031;-59
